Etusivu
METAR-TAF:

METAR-TAF

Lentoasemat :

Natchez-Adams County Airport (Hardy-Anders Field)

Natchez, Mississippi, Yhdysvallat

Leveyspiiri: 31-37N, Pituuspiiri: 091-18W, korkeus merenpinnasta: 83 m

Tämänhetkinen sää

Tämä raportti tehtiin 9 minuuttia sitten, kello 02.16 UTC
Tuuli 11 kn koillisesta puuskistuen 23 kn:hen
Lämpötila 23°C
Kosteus 89%
Ilmanpaine 1017 hPa
Näkyvyys: 14.5 km
Hajonneita pilviä 1300 ft:n korkeudessa
Hajonneita pilviä 2300 ft:n korkeudessa
Pilvistä 5000 ft:n korkeudessa
ukkosta näköpiirissä, heikkoa sadetta

METAR: KHEZ 060216Z AUTO 05011G23KT 9SM VCTS -RA BKN013 BKN023 OVC050 23/21 A3004 RMK AO2 LTG DSNT N-SE RAB12 PRESRR P0000

Aika: 21:25 (02:25 UTC)


TAF: puuttuu

Säähavainnot ja -ennusteet yli 4000 lentoasemalta (METAR- ja TAF-raportit).

Käytössä olevat sääasemat on merkitty karttaan keltaisilla ja punaisilla pisteillä.

Aseta hiiri pisteen päälle nähdäksesi sääaseman nimen.

Klikkaa sitten nähdäksesi säähavainnot ja -ennusteet.

Kartan vaihtaminen: klikkaa mustalla rastilla varustettuja vihreitä pisteitä, niin voit zoomata sisään; viivalla varustettua vihreää pistettä, niin voit zoomata ulos tai vihreitä nuolia, niin pääset viereisille kartoille.


METAR-TAF: